sensor_id;sensor_type;location;lat;lon;timestamp;temperature;humidity
4934;DHT22;2482;49.154;8.254;2024-02-15T00:01:46;11.00;99.90
4934;DHT22;2482;49.154;8.254;2024-02-15T00:04:13;11.00;99.90
4934;DHT22;2482;49.154;8.254;2024-02-15T00:06:41;11.00;99.90
4934;DHT22;2482;49.154;8.254;2024-02-15T00:09:08;10.90;99.90
4934;DHT22;2482;49.154;8.254;2024-02-15T00:11:35;11.10;99.90
4934;DHT22;2482;49.154;8.254;2024-02-15T00:14:03;11.00;99.90
4934;DHT22;2482;49.154;8.254;2024-02-15T00:16:31;11.00;99.90
4934;DHT22;2482;49.154;8.254;2024-02-15T00:18:59;11.00;99.90
4934;DHT22;2482;49.154;8.254;2024-02-15T00:21:26;11.00;99.90
4934;DHT22;2482;49.154;8.254;2024-02-15T00:23:54;10.90;99.90
4934;DHT22;2482;49.154;8.254;2024-02-15T00:26:24;11.00;99.90
4934;DHT22;2482;49.154;8.254;2024-02-15T00:28:51;11.10;99.90
4934;DHT22;2482;49.154;8.254;2024-02-15T00:31:19;11.00;99.90
4934;DHT22;2482;49.154;8.254;2024-02-15T00:33:46;10.90;99.90
4934;DHT22;2482;49.154;8.254;2024-02-15T00:36:14;11.10;99.90
4934;DHT22;2482;49.154;8.254;2024-02-15T00:38:41;11.10;99.90
4934;DHT22;2482;49.154;8.254;2024-02-15T00:41:10;10.90;99.90
4934;DHT22;2482;49.154;8.254;2024-02-15T00:43:37;10.50;99.90
4934;DHT22;2482;49.154;8.254;2024-02-15T00:46:05;10.10;99.90
4934;DHT22;2482;49.154;8.254;2024-02-15T00:48:32;9.80;99.90
4934;DHT22;2482;49.154;8.254;2024-02-15T00:51:00;9.80;99.90
4934;DHT22;2482;49.154;8.254;2024-02-15T00:53:27;9.80;99.90
4934;DHT22;2482;49.154;8.254;2024-02-15T00:55:55;9.80;99.90
4934;DHT22;2482;49.154;8.254;2024-02-15T00:58:23;9.80;99.90
4934;DHT22;2482;49.154;8.254;2024-02-15T01:00:53;10.10;99.90
4934;DHT22;2482;49.154;8.254;2024-02-15T01:03:20;10.30;99.90
4934;DHT22;2482;49.154;8.254;2024-02-15T01:05:48;10.30;99.90
4934;DHT22;2482;49.154;8.254;2024-02-15T01:08:15;10.40;99.90
4934;DHT22;2482;49.154;8.254;2024-02-15T01:10:42;10.60;99.90
4934;DHT22;2482;49.154;8.254;2024-02-15T01:13:09;10.50;99.90
4934;DHT22;2482;49.154;8.254;2024-02-15T01:15:36;10.50;99.90
4934;DHT22;2482;49.154;8.254;2024-02-15T01:18:05;10.50;99.90
4934;DHT22;2482;49.154;8.254;2024-02-15T01:20:32;10.60;99.90
4934;DHT22;2482;49.154;8.254;2024-02-15T01:23:00;10.50;99.90
4934;DHT22;2482;49.154;8.254;2024-02-15T01:25:26;10.20;99.90
4934;DHT22;2482;49.154;8.254;2024-02-15T01:27:56;10.10;99.90
4934;DHT22;2482;49.154;8.254;2024-02-15T01:30:23;10.10;99.90
4934;DHT22;2482;49.154;8.254;2024-02-15T01:32:50;10.00;99.90
4934;DHT22;2482;49.154;8.254;2024-02-15T01:35:18;10.10;99.90
4934;DHT22;2482;49.154;8.254;2024-02-15T01:37:46;10.10;99.90
4934;DHT22;2482;49.154;8.254;2024-02-15T01:40:13;10.10;99.90
4934;DHT22;2482;49.154;8.254;2024-02-15T01:42:40;10.10;99.90
4934;DHT22;2482;49.154;8.254;2024-02-15T01:45:07;10.20;99.90
4934;DHT22;2482;49.154;8.254;2024-02-15T01:47:37;10.10;99.90
4934;DHT22;2482;49.154;8.254;2024-02-15T01:50:09;10.20;99.90
4934;DHT22;2482;49.154;8.254;2024-02-15T01:52:38;10.30;99.90
4934;DHT22;2482;49.154;8.254;2024-02-15T01:55:06;10.40;99.90
4934;DHT22;2482;49.154;8.254;2024-02-15T01:57:38;10.30;99.90
4934;DHT22;2482;49.154;8.254;2024-02-15T02:00:07;10.40;99.90
4934;DHT22;2482;49.154;8.254;2024-02-15T02:02:39;10.40;99.90
4934;DHT22;2482;49.154;8.254;2024-02-15T02:05:08;10.50;99.90
4934;DHT22;2482;49.154;8.254;2024-02-15T02:07:37;10.70;99.90
4934;DHT22;2482;49.154;8.254;2024-02-15T02:10:08;10.80;99.90
4934;DHT22;2482;49.154;8.254;2024-02-15T02:12:40;10.90;99.90
4934;DHT22;2482;49.154;8.254;2024-02-15T02:15:08;10.90;99.90
4934;DHT22;2482;49.154;8.254;2024-02-15T02:17:37;10.90;99.90
4934;DHT22;2482;49.154;8.254;2024-02-15T02:20:07;10.60;99.90
4934;DHT22;2482;49.154;8.254;2024-02-15T02:22:35;10.50;99.90
4934;DHT22;2482;49.154;8.254;2024-02-15T02:25:07;10.60;99.90
4934;DHT22;2482;49.154;8.254;2024-02-15T02:27:35;10.70;99.90
4934;DHT22;2482;49.154;8.254;2024-02-15T02:30:05;10.60;99.90
4934;DHT22;2482;49.154;8.254;2024-02-15T02:32:42;10.60;99.90
4934;DHT22;2482;49.154;8.254;2024-02-15T02:35:10;10.60;99.90
4934;DHT22;2482;49.154;8.254;2024-02-15T02:37:39;10.50;99.90
4934;DHT22;2482;49.154;8.254;2024-02-15T02:40:09;10.40;99.90
4934;DHT22;2482;49.154;8.254;2024-02-15T02:42:46;10.50;99.90
4934;DHT22;2482;49.154;8.254;2024-02-15T02:45:20;10.50;99.90
4934;DHT22;2482;49.154;8.254;2024-02-15T02:47:49;10.50;99.90
4934;DHT22;2482;49.154;8.254;2024-02-15T02:50:21;10.60;99.90
4934;DHT22;2482;49.154;8.254;2024-02-15T02:52:50;10.70;99.90
4934;DHT22;2482;49.154;8.254;2024-02-15T02:55:17;10.70;99.90
4934;DHT22;2482;49.154;8.254;2024-02-15T02:57:44;10.80;99.90
4934;DHT22;2482;49.154;8.254;2024-02-15T03:00:13;10.80;99.90
4934;DHT22;2482;49.154;8.254;2024-02-15T03:02:45;10.70;99.90
4934;DHT22;2482;49.154;8.254;2024-02-15T03:05:13;10.70;99.90
4934;DHT22;2482;49.154;8.254;2024-02-15T03:07:41;10.70;99.90
4934;DHT22;2482;49.154;8.254;2024-02-15T03:10:09;10.60;99.90
4934;DHT22;2482;49.154;8.254;2024-02-15T03:12:37;10.80;99.90
4934;DHT22;2482;49.154;8.254;2024-02-15T03:15:05;10.80;99.90
4934;DHT22;2482;49.154;8.254;2024-02-15T03:17:40;10.80;99.90
4934;DHT22;2482;49.154;8.254;2024-02-15T03:20:09;10.60;99.90
4934;DHT22;2482;49.154;8.254;2024-02-15T03:22:55;10.60;99.90
4934;DHT22;2482;49.154;8.254;2024-02-15T03:25:25;10.70;99.90
4934;DHT22;2482;49.154;8.254;2024-02-15T03:27:54;10.80;99.90
4934;DHT22;2482;49.154;8.254;2024-02-15T03:30:26;10.70;99.90
4934;DHT22;2482;49.154;8.254;2024-02-15T03:32:55;10.80;99.90
4934;DHT22;2482;49.154;8.254;2024-02-15T03:35:25;10.70;99.90
4934;DHT22;2482;49.154;8.254;2024-02-15T03:37:55;10.80;99.90
4934;DHT22;2482;49.154;8.254;2024-02-15T03:40:24;10.80;99.90
4934;DHT22;2482;49.154;8.254;2024-02-15T03:42:54;10.70;99.90
4934;DHT22;2482;49.154;8.254;2024-02-15T03:45:21;10.80;99.90
4934;DHT22;2482;49.154;8.254;2024-02-15T03:47:53;10.90;99.90
4934;DHT22;2482;49.154;8.254;2024-02-15T03:50:21;10.80;99.90
4934;DHT22;2482;49.154;8.254;2024-02-15T03:52:49;10.70;99.90
4934;DHT22;2482;49.154;8.254;2024-02-15T03:55:17;10.80;99.90
4934;DHT22;2482;49.154;8.254;2024-02-15T03:57:46;10.80;99.90
4934;DHT22;2482;49.154;8.254;2024-02-15T04:00:15;10.80;99.90
4934;DHT22;2482;49.154;8.254;2024-02-15T04:02:49;10.80;99.90
4934;DHT22;2482;49.154;8.254;2024-02-15T04:05:17;11.00;99.90
4934;DHT22;2482;49.154;8.254;2024-02-15T04:07:45;10.80;99.90
4934;DHT22;2482;49.154;8.254;2024-02-15T04:10:13;10.80;99.90
4934;DHT22;2482;49.154;8.254;2024-02-15T04:12:40;10.80;99.90
4934;DHT22;2482;49.154;8.254;2024-02-15T04:15:10;10.80;99.90
4934;DHT22;2482;49.154;8.254;2024-02-15T04:17:44;10.70;99.90
4934;DHT22;2482;49.154;8.254;2024-02-15T04:20:12;10.70;99.90
4934;DHT22;2482;49.154;8.254;2024-02-15T04:22:41;10.70;99.90
4934;DHT22;2482;49.154;8.254;2024-02-15T04:25:11;10.70;99.90
4934;DHT22;2482;49.154;8.254;2024-02-15T04:27:45;10.60;99.90
4934;DHT22;2482;49.154;8.254;2024-02-15T04:30:14;10.70;99.90
4934;DHT22;2482;49.154;8.254;2024-02-15T04:32:43;10.80;99.90
4934;DHT22;2482;49.154;8.254;2024-02-15T04:35:10;10.90;99.90
4934;DHT22;2482;49.154;8.254;2024-02-15T04:37:41;10.80;99.90
4934;DHT22;2482;49.154;8.254;2024-02-15T04:40:08;10.60;99.90
4934;DHT22;2482;49.154;8.254;2024-02-15T04:42:41;10.60;99.90
4934;DHT22;2482;49.154;8.254;2024-02-15T04:45:10;10.90;99.90
4934;DHT22;2482;49.154;8.254;2024-02-15T04:47:41;10.80;99.90
4934;DHT22;2482;49.154;8.254;2024-02-15T04:50:09;10.80;99.90
4934;DHT22;2482;49.154;8.254;2024-02-15T04:52:36;10.80;99.90
4934;DHT22;2482;49.154;8.254;2024-02-15T04:55:04;10.70;99.90
4934;DHT22;2482;49.154;8.254;2024-02-15T04:57:32;10.70;99.90
4934;DHT22;2482;49.154;8.254;2024-02-15T05:00:03;10.70;99.90
4934;DHT22;2482;49.154;8.254;2024-02-15T05:02:38;10.80;99.90
4934;DHT22;2482;49.154;8.254;2024-02-15T05:05:11;10.80;99.90
4934;DHT22;2482;49.154;8.254;2024-02-15T05:07:41;10.80;99.90
4934;DHT22;2482;49.154;8.254;2024-02-15T05:10:10;10.80;99.90
4934;DHT22;2482;49.154;8.254;2024-02-15T05:12:37;10.90;99.90
4934;DHT22;2482;49.154;8.254;2024-02-15T05:15:07;10.80;99.90
4934;DHT22;2482;49.154;8.254;2024-02-15T05:17:40;10.80;99.90
4934;DHT22;2482;49.154;8.254;2024-02-15T05:20:11;10.80;99.90
4934;DHT22;2482;49.154;8.254;2024-02-15T05:22:41;10.80;99.90
4934;DHT22;2482;49.154;8.254;2024-02-15T05:25:19;10.80;99.90
4934;DHT22;2482;49.154;8.254;2024-02-15T05:27:53;10.80;99.90
4934;DHT22;2482;49.154;8.254;2024-02-15T05:30:22;10.90;99.90
4934;DHT22;2482;49.154;8.254;2024-02-15T05:32:51;10.90;99.90
4934;DHT22;2482;49.154;8.254;2024-02-15T05:35:21;10.90;99.90
4934;DHT22;2482;49.154;8.254;2024-02-15T05:37:50;10.80;99.90
4934;DHT22;2482;49.154;8.254;2024-02-15T05:40:20;10.80;99.90
4934;DHT22;2482;49.154;8.254;2024-02-15T05:42:47;10.70;99.90
4934;DHT22;2482;49.154;8.254;2024-02-15T05:47:52;10.90;99.90
4934;DHT22;2482;49.154;8.254;2024-02-15T05:50:20;10.90;99.90
4934;DHT22;2482;49.154;8.254;2024-02-15T05:52:48;11.00;99.90
4934;DHT22;2482;49.154;8.254;2024-02-15T05:55:15;10.80;99.90
4934;DHT22;2482;49.154;8.254;2024-02-15T05:57:43;10.80;99.90
4934;DHT22;2482;49.154;8.254;2024-02-15T06:00:11;10.80;99.90
4934;DHT22;2482;49.154;8.254;2024-02-15T06:02:48;10.70;99.90
4934;DHT22;2482;49.154;8.254;2024-02-15T06:05:16;10.80;99.90
4934;DHT22;2482;49.154;8.254;2024-02-15T06:07:44;10.80;99.90
4934;DHT22;2482;49.154;8.254;2024-02-15T06:10:13;10.70;99.90
4934;DHT22;2482;49.154;8.254;2024-02-15T06:12:42;10.80;99.90
4934;DHT22;2482;49.154;8.254;2024-02-15T06:15:10;10.90;99.90
4934;DHT22;2482;49.154;8.254;2024-02-15T06:17:43;10.90;99.90
4934;DHT22;2482;49.154;8.254;2024-02-15T06:20:15;10.90;99.90
4934;DHT22;2482;49.154;8.254;2024-02-15T06:22:49;10.80;99.90
4934;DHT22;2482;49.154;8.254;2024-02-15T06:25:16;10.80;99.90
4934;DHT22;2482;49.154;8.254;2024-02-15T06:27:48;10.70;99.90
4934;DHT22;2482;49.154;8.254;2024-02-15T06:30:18;10.60;99.90
4934;DHT22;2482;49.154;8.254;2024-02-15T06:33:04;10.70;99.90
4934;DHT22;2482;49.154;8.254;2024-02-15T06:35:49;10.60;99.90
4934;DHT22;2482;49.154;8.254;2024-02-15T06:38:35;10.70;99.90
4934;DHT22;2482;49.154;8.254;2024-02-15T06:41:20;10.60;99.90
4934;DHT22;2482;49.154;8.254;2024-02-15T06:43:51;10.60;99.90
4934;DHT22;2482;49.154;8.254;2024-02-15T06:46:18;10.60;99.90
4934;DHT22;2482;49.154;8.254;2024-02-15T06:48:46;10.60;99.90
4934;DHT22;2482;49.154;8.254;2024-02-15T06:51:14;10.50;99.90
4934;DHT22;2482;49.154;8.254;2024-02-15T06:53:43;10.40;99.90
4934;DHT22;2482;49.154;8.254;2024-02-15T06:56:10;10.50;99.90
4934;DHT22;2482;49.154;8.254;2024-02-15T06:58:40;10.40;99.90
4934;DHT22;2482;49.154;8.254;2024-02-15T07:01:07;10.20;99.90
4934;DHT22;2482;49.154;8.254;2024-02-15T07:03:36;10.10;99.90
4934;DHT22;2482;49.154;8.254;2024-02-15T07:06:04;10.00;99.90
4934;DHT22;2482;49.154;8.254;2024-02-15T07:08:33;10.10;99.90
4934;DHT22;2482;49.154;8.254;2024-02-15T07:11:02;10.10;99.90
4934;DHT22;2482;49.154;8.254;2024-02-15T07:13:30;10.10;99.90
4934;DHT22;2482;49.154;8.254;2024-02-15T07:15:57;10.00;99.90
4934;DHT22;2482;49.154;8.254;2024-02-15T07:18:24;10.10;99.90
4934;DHT22;2482;49.154;8.254;2024-02-15T07:20:56;10.00;99.90
4934;DHT22;2482;49.154;8.254;2024-02-15T07:23:29;10.10;99.90
4934;DHT22;2482;49.154;8.254;2024-02-15T07:25:57;10.20;99.90
4934;DHT22;2482;49.154;8.254;2024-02-15T07:28:24;10.20;99.90
4934;DHT22;2482;49.154;8.254;2024-02-15T07:30:52;10.40;99.90
4934;DHT22;2482;49.154;8.254;2024-02-15T07:33:22;10.30;99.90
4934;DHT22;2482;49.154;8.254;2024-02-15T07:35:50;10.20;99.90
4934;DHT22;2482;49.154;8.254;2024-02-15T07:38:18;10.20;99.90
4934;DHT22;2482;49.154;8.254;2024-02-15T07:40:45;10.20;99.90
4934;DHT22;2482;49.154;8.254;2024-02-15T07:43:12;10.30;99.90
4934;DHT22;2482;49.154;8.254;2024-02-15T07:45:42;10.40;99.90
4934;DHT22;2482;49.154;8.254;2024-02-15T07:48:09;10.40;99.90
4934;DHT22;2482;49.154;8.254;2024-02-15T07:50:37;10.30;99.90
4934;DHT22;2482;49.154;8.254;2024-02-15T07:53:04;10.30;99.90
4934;DHT22;2482;49.154;8.254;2024-02-15T07:55:36;10.30;99.90
4934;DHT22;2482;49.154;8.254;2024-02-15T07:58:04;10.30;99.90
4934;DHT22;2482;49.154;8.254;2024-02-15T08:00:31;10.30;99.90
4934;DHT22;2482;49.154;8.254;2024-02-15T08:02:58;10.30;99.90
4934;DHT22;2482;49.154;8.254;2024-02-15T08:05:26;10.20;99.90
4934;DHT22;2482;49.154;8.254;2024-02-15T08:07:53;10.20;99.90
4934;DHT22;2482;49.154;8.254;2024-02-15T08:10:24;10.20;99.90
4934;DHT22;2482;49.154;8.254;2024-02-15T08:12:53;10.10;99.90
4934;DHT22;2482;49.154;8.254;2024-02-15T08:15:22;10.10;99.90
4934;DHT22;2482;49.154;8.254;2024-02-15T08:17:51;10.30;99.90
4934;DHT22;2482;49.154;8.254;2024-02-15T08:20:18;10.30;99.90
4934;DHT22;2482;49.154;8.254;2024-02-15T08:22:49;10.40;99.90
4934;DHT22;2482;49.154;8.254;2024-02-15T08:25:16;10.50;99.90
4934;DHT22;2482;49.154;8.254;2024-02-15T08:27:47;10.60;99.90
4934;DHT22;2482;49.154;8.254;2024-02-15T08:30:16;10.50;99.90
4934;DHT22;2482;49.154;8.254;2024-02-15T08:32:50;10.70;99.90
4934;DHT22;2482;49.154;8.254;2024-02-15T08:35:18;10.80;99.90
4934;DHT22;2482;49.154;8.254;2024-02-15T08:37:46;10.80;99.90
4934;DHT22;2482;49.154;8.254;2024-02-15T08:40:15;11.00;99.90
4934;DHT22;2482;49.154;8.254;2024-02-15T08:42:45;11.10;99.90
4934;DHT22;2482;49.154;8.254;2024-02-15T08:45:15;11.20;99.90
4934;DHT22;2482;49.154;8.254;2024-02-15T08:47:43;11.30;99.90
4934;DHT22;2482;49.154;8.254;2024-02-15T08:50:11;11.40;99.90
4934;DHT22;2482;49.154;8.254;2024-02-15T08:52:39;11.50;99.90
4934;DHT22;2482;49.154;8.254;2024-02-15T08:55:08;11.60;99.90
4934;DHT22;2482;49.154;8.254;2024-02-15T08:57:37;11.80;99.90
4934;DHT22;2482;49.154;8.254;2024-02-15T09:00:09;11.90;99.90
4934;DHT22;2482;49.154;8.254;2024-02-15T09:02:42;11.90;99.90
4934;DHT22;2482;49.154;8.254;2024-02-15T09:05:10;12.00;99.90
4934;DHT22;2482;49.154;8.254;2024-02-15T09:07:44;12.10;99.90
4934;DHT22;2482;49.154;8.254;2024-02-15T09:10:14;12.20;99.90
4934;DHT22;2482;49.154;8.254;2024-02-15T09:12:45;12.40;99.90
4934;DHT22;2482;49.154;8.254;2024-02-15T09:15:16;12.50;99.90
4934;DHT22;2482;49.154;8.254;2024-02-15T09:17:44;12.60;99.90
4934;DHT22;2482;49.154;8.254;2024-02-15T09:20:15;12.90;99.90
4934;DHT22;2482;49.154;8.254;2024-02-15T09:25:18;13.20;99.90
4934;DHT22;2482;49.154;8.254;2024-02-15T09:27:45;13.30;99.90
4934;DHT22;2482;49.154;8.254;2024-02-15T09:30:14;13.60;99.90
4934;DHT22;2482;49.154;8.254;2024-02-15T09:32:43;13.60;99.90
4934;DHT22;2482;49.154;8.254;2024-02-15T09:35:13;13.80;99.90
4934;DHT22;2482;49.154;8.254;2024-02-15T09:37:47;13.90;99.90
4934;DHT22;2482;49.154;8.254;2024-02-15T09:40:17;14.20;99.90
4934;DHT22;2482;49.154;8.254;2024-02-15T09:42:47;14.30;99.90
4934;DHT22;2482;49.154;8.254;2024-02-15T09:45:14;14.30;99.90
4934;DHT22;2482;49.154;8.254;2024-02-15T09:47:45;14.70;99.90
4934;DHT22;2482;49.154;8.254;2024-02-15T09:50:14;14.70;99.90
4934;DHT22;2482;49.154;8.254;2024-02-15T09:53:00;14.70;99.90
4934;DHT22;2482;49.154;8.254;2024-02-15T09:55:34;14.70;99.90
4934;DHT22;2482;49.154;8.254;2024-02-15T09:58:02;14.80;99.90
4934;DHT22;2482;49.154;8.254;2024-02-15T10:00:33;15.10;99.90
4934;DHT22;2482;49.154;8.254;2024-02-15T10:03:02;15.10;99.90
4934;DHT22;2482;49.154;8.254;2024-02-15T10:05:32;15.20;99.90
4934;DHT22;2482;49.154;8.254;2024-02-15T10:08:00;15.10;99.90
4934;DHT22;2482;49.154;8.254;2024-02-15T10:10:28;15.10;99.90
4934;DHT22;2482;49.154;8.254;2024-02-15T10:12:56;15.20;99.90
4934;DHT22;2482;49.154;8.254;2024-02-15T10:15:37;15.30;99.90
4934;DHT22;2482;49.154;8.254;2024-02-15T10:18:08;15.40;99.90
4934;DHT22;2482;49.154;8.254;2024-02-15T10:20:38;15.40;99.90
4934;DHT22;2482;49.154;8.254;2024-02-15T10:23:10;15.40;99.90
4934;DHT22;2482;49.154;8.254;2024-02-15T10:25:39;15.30;99.90
4934;DHT22;2482;49.154;8.254;2024-02-15T10:28:11;15.20;99.90
4934;DHT22;2482;49.154;8.254;2024-02-15T10:30:40;15.10;99.90
4934;DHT22;2482;49.154;8.254;2024-02-15T10:33:20;15.20;99.90
4934;DHT22;2482;49.154;8.254;2024-02-15T10:36:07;15.00;99.90
4934;DHT22;2482;49.154;8.254;2024-02-15T10:38:35;15.10;99.90
4934;DHT22;2482;49.154;8.254;2024-02-15T10:41:07;15.00;99.90
4934;DHT22;2482;49.154;8.254;2024-02-15T10:43:37;14.70;99.90
4934;DHT22;2482;49.154;8.254;2024-02-15T10:46:08;14.80;99.90
4934;DHT22;2482;49.154;8.254;2024-02-15T10:48:39;14.70;99.90
4934;DHT22;2482;49.154;8.254;2024-02-15T10:51:10;14.90;99.90
4934;DHT22;2482;49.154;8.254;2024-02-15T10:53:47;15.00;99.90
4934;DHT22;2482;49.154;8.254;2024-02-15T10:56:18;15.10;99.90
4934;DHT22;2482;49.154;8.254;2024-02-15T10:58:51;15.10;99.90
4934;DHT22;2482;49.154;8.254;2024-02-15T11:01:36;15.10;99.90
4934;DHT22;2482;49.154;8.254;2024-02-15T11:04:12;15.10;99.90
4934;DHT22;2482;49.154;8.254;2024-02-15T11:06:43;15.10;99.90
4934;DHT22;2482;49.154;8.254;2024-02-15T11:09:12;14.90;99.90
4934;DHT22;2482;49.154;8.254;2024-02-15T11:11:41;15.20;99.90
4934;DHT22;2482;49.154;8.254;2024-02-15T11:14:30;15.10;99.90
4934;DHT22;2482;49.154;8.254;2024-02-15T11:16:59;15.20;99.90
4934;DHT22;2482;49.154;8.254;2024-02-15T11:22:16;15.10;99.90
4934;DHT22;2482;49.154;8.254;2024-02-15T11:24:51;15.10;99.90
4934;DHT22;2482;49.154;8.254;2024-02-15T11:27:27;15.10;99.90
4934;DHT22;2482;49.154;8.254;2024-02-15T11:29:56;15.10;99.90
4934;DHT22;2482;49.154;8.254;2024-02-15T11:32:50;15.10;99.90
4934;DHT22;2482;49.154;8.254;2024-02-15T11:35:26;15.10;99.90
4934;DHT22;2482;49.154;8.254;2024-02-15T11:37:59;15.20;99.90
4934;DHT22;2482;49.154;8.254;2024-02-15T11:43:52;15.40;99.90
4934;DHT22;2482;49.154;8.254;2024-02-15T11:46:24;15.30;99.90
4934;DHT22;2482;49.154;8.254;2024-02-15T11:48:52;15.30;99.90
4934;DHT22;2482;49.154;8.254;2024-02-15T11:51:34;15.50;99.90
4934;DHT22;2482;49.154;8.254;2024-02-15T11:54:10;15.70;99.90
4934;DHT22;2482;49.154;8.254;2024-02-15T11:59:16;15.60;99.90
4934;DHT22;2482;49.154;8.254;2024-02-15T12:01:57;15.60;99.90
4934;DHT22;2482;49.154;8.254;2024-02-15T12:04:44;15.80;99.90
4934;DHT22;2482;49.154;8.254;2024-02-15T12:07:31;16.00;99.90
4934;DHT22;2482;49.154;8.254;2024-02-15T12:10:18;15.90;99.90
4934;DHT22;2482;49.154;8.254;2024-02-15T12:13:04;16.30;99.90
4934;DHT22;2482;49.154;8.254;2024-02-15T12:15:57;16.40;99.90
4934;DHT22;2482;49.154;8.254;2024-02-15T12:18:46;16.50;99.90
4934;DHT22;2482;49.154;8.254;2024-02-15T12:21:22;16.30;99.90
4934;DHT22;2482;49.154;8.254;2024-02-15T12:23:52;16.60;99.90
4934;DHT22;2482;49.154;8.254;2024-02-15T12:26:20;16.50;99.90
4934;DHT22;2482;49.154;8.254;2024-02-15T12:28:51;16.50;99.90
4934;DHT22;2482;49.154;8.254;2024-02-15T12:31:24;16.60;99.90
4934;DHT22;2482;49.154;8.254;2024-02-15T12:34:05;16.50;99.90
4934;DHT22;2482;49.154;8.254;2024-02-15T12:36:35;16.60;99.90
4934;DHT22;2482;49.154;8.254;2024-02-15T12:39:07;16.90;99.90
4934;DHT22;2482;49.154;8.254;2024-02-15T12:41:48;16.90;99.90
4934;DHT22;2482;49.154;8.254;2024-02-15T12:44:20;16.90;99.90
4934;DHT22;2482;49.154;8.254;2024-02-15T12:46:56;16.90;99.90
4934;DHT22;2482;49.154;8.254;2024-02-15T12:51:52;17.30;99.90
4934;DHT22;2482;49.154;8.254;2024-02-15T12:54:21;17.20;99.90
4934;DHT22;2482;49.154;8.254;2024-02-15T12:56:50;16.90;99.90
4934;DHT22;2482;49.154;8.254;2024-02-15T12:59:20;16.80;99.90
4934;DHT22;2482;49.154;8.254;2024-02-15T13:01:48;16.90;99.90
4934;DHT22;2482;49.154;8.254;2024-02-15T13:04:26;17.00;99.90
4934;DHT22;2482;49.154;8.254;2024-02-15T13:06:53;16.80;99.90
4934;DHT22;2482;49.154;8.254;2024-02-15T13:09:20;16.70;99.90
4934;DHT22;2482;49.154;8.254;2024-02-15T13:11:49;16.90;99.90
4934;DHT22;2482;49.154;8.254;2024-02-15T13:14:17;17.00;99.90
4934;DHT22;2482;49.154;8.254;2024-02-15T13:16:44;17.00;99.90
4934;DHT22;2482;49.154;8.254;2024-02-15T13:19:13;17.20;99.90
4934;DHT22;2482;49.154;8.254;2024-02-15T13:21:40;16.90;99.90
4934;DHT22;2482;49.154;8.254;2024-02-15T13:24:07;16.90;99.90
4934;DHT22;2482;49.154;8.254;2024-02-15T13:26:37;16.80;99.90
4934;DHT22;2482;49.154;8.254;2024-02-15T13:29:04;16.70;99.90
4934;DHT22;2482;49.154;8.254;2024-02-15T13:31:32;16.90;99.90
4934;DHT22;2482;49.154;8.254;2024-02-15T13:34:01;16.70;99.90
4934;DHT22;2482;49.154;8.254;2024-02-15T13:36:28;16.80;99.90
4934;DHT22;2482;49.154;8.254;2024-02-15T13:38:55;16.70;99.90
4934;DHT22;2482;49.154;8.254;2024-02-15T13:41:22;16.60;99.90
4934;DHT22;2482;49.154;8.254;2024-02-15T13:43:49;16.70;99.90
4934;DHT22;2482;49.154;8.254;2024-02-15T13:46:17;16.70;99.90
4934;DHT22;2482;49.154;8.254;2024-02-15T13:48:46;16.70;99.90
4934;DHT22;2482;49.154;8.254;2024-02-15T13:51:14;16.80;99.90
4934;DHT22;2482;49.154;8.254;2024-02-15T13:53:41;16.80;99.90
4934;DHT22;2482;49.154;8.254;2024-02-15T13:56:10;16.80;99.90
4934;DHT22;2482;49.154;8.254;2024-02-15T13:58:37;16.60;99.90
4934;DHT22;2482;49.154;8.254;2024-02-15T14:01:04;16.60;99.90
4934;DHT22;2482;49.154;8.254;2024-02-15T14:03:31;16.40;99.90
4934;DHT22;2482;49.154;8.254;2024-02-15T14:06:00;16.30;99.90
4934;DHT22;2482;49.154;8.254;2024-02-15T14:08:27;16.30;99.90
4934;DHT22;2482;49.154;8.254;2024-02-15T14:10:54;16.20;99.90
4934;DHT22;2482;49.154;8.254;2024-02-15T14:13:23;16.20;99.90
4934;DHT22;2482;49.154;8.254;2024-02-15T14:15:51;16.20;99.90
4934;DHT22;2482;49.154;8.254;2024-02-15T14:18:18;16.10;99.90
4934;DHT22;2482;49.154;8.254;2024-02-15T14:20:46;16.10;99.90
4934;DHT22;2482;49.154;8.254;2024-02-15T14:23:14;16.10;99.90
4934;DHT22;2482;49.154;8.254;2024-02-15T14:25:43;16.10;99.90
4934;DHT22;2482;49.154;8.254;2024-02-15T14:28:12;15.90;99.90
4934;DHT22;2482;49.154;8.254;2024-02-15T14:30:40;16.00;99.90
4934;DHT22;2482;49.154;8.254;2024-02-15T14:33:25;15.90;99.90
4934;DHT22;2482;49.154;8.254;2024-02-15T14:36:00;16.00;99.90
4934;DHT22;2482;49.154;8.254;2024-02-15T14:38:28;16.00;99.90
4934;DHT22;2482;49.154;8.254;2024-02-15T14:40:55;16.00;99.90
4934;DHT22;2482;49.154;8.254;2024-02-15T14:43:25;16.10;99.90
4934;DHT22;2482;49.154;8.254;2024-02-15T14:45:54;16.00;99.90
4934;DHT22;2482;49.154;8.254;2024-02-15T14:48:24;15.90;99.90
4934;DHT22;2482;49.154;8.254;2024-02-15T14:50:52;15.90;99.90
4934;DHT22;2482;49.154;8.254;2024-02-15T14:53:20;15.90;99.90
4934;DHT22;2482;49.154;8.254;2024-02-15T14:55:48;15.90;99.90
4934;DHT22;2482;49.154;8.254;2024-02-15T14:58:16;15.90;99.90
4934;DHT22;2482;49.154;8.254;2024-02-15T15:00:45;15.90;99.90
4934;DHT22;2482;49.154;8.254;2024-02-15T15:03:14;15.90;99.90
4934;DHT22;2482;49.154;8.254;2024-02-15T15:05:42;15.90;99.90
4934;DHT22;2482;49.154;8.254;2024-02-15T15:08:29;16.00;99.90
4934;DHT22;2482;49.154;8.254;2024-02-15T15:11:15;15.80;99.90
4934;DHT22;2482;49.154;8.254;2024-02-15T15:14:00;15.80;99.90
4934;DHT22;2482;49.154;8.254;2024-02-15T15:16:29;15.70;99.90
4934;DHT22;2482;49.154;8.254;2024-02-15T15:18:57;15.70;99.90
4934;DHT22;2482;49.154;8.254;2024-02-15T15:21:25;15.70;99.90
4934;DHT22;2482;49.154;8.254;2024-02-15T15:23:55;15.50;99.90
4934;DHT22;2482;49.154;8.254;2024-02-15T15:26:23;15.50;99.90
4934;DHT22;2482;49.154;8.254;2024-02-15T15:28:50;15.60;99.90
4934;DHT22;2482;49.154;8.254;2024-02-15T15:31:18;15.50;99.90
4934;DHT22;2482;49.154;8.254;2024-02-15T15:33:48;15.30;99.90
4934;DHT22;2482;49.154;8.254;2024-02-15T15:36:17;15.20;99.90
4934;DHT22;2482;49.154;8.254;2024-02-15T15:38:47;15.30;99.90
4934;DHT22;2482;49.154;8.254;2024-02-15T15:41:15;15.10;99.90
4934;DHT22;2482;49.154;8.254;2024-02-15T15:43:42;15.10;99.90
4934;DHT22;2482;49.154;8.254;2024-02-15T15:46:13;14.90;99.90
4934;DHT22;2482;49.154;8.254;2024-02-15T15:48:43;14.90;99.90
4934;DHT22;2482;49.154;8.254;2024-02-15T15:51:12;14.80;99.90
4934;DHT22;2482;49.154;8.254;2024-02-15T15:53:41;14.80;99.90
4934;DHT22;2482;49.154;8.254;2024-02-15T15:56:09;14.60;99.90
4934;DHT22;2482;49.154;8.254;2024-02-15T15:58:36;14.60;99.90
4934;DHT22;2482;49.154;8.254;2024-02-15T16:01:03;14.40;99.90
4934;DHT22;2482;49.154;8.254;2024-02-15T16:03:31;14.40;99.90
4934;DHT22;2482;49.154;8.254;2024-02-15T16:05:59;14.40;99.90
4934;DHT22;2482;49.154;8.254;2024-02-15T16:08:26;14.30;99.90
4934;DHT22;2482;49.154;8.254;2024-02-15T16:10:54;14.20;99.90
4934;DHT22;2482;49.154;8.254;2024-02-15T16:13:22;14.20;99.90
4934;DHT22;2482;49.154;8.254;2024-02-15T16:15:52;14.20;99.90
4934;DHT22;2482;49.154;8.254;2024-02-15T16:18:21;14.20;99.90
4934;DHT22;2482;49.154;8.254;2024-02-15T16:20:48;14.30;99.90
4934;DHT22;2482;49.154;8.254;2024-02-15T16:23:20;14.20;99.90
4934;DHT22;2482;49.154;8.254;2024-02-15T16:25:47;14.00;99.90
4934;DHT22;2482;49.154;8.254;2024-02-15T16:28:14;14.00;99.90
4934;DHT22;2482;49.154;8.254;2024-02-15T16:30:42;13.90;99.90
4934;DHT22;2482;49.154;8.254;2024-02-15T16:33:11;13.80;99.90
4934;DHT22;2482;49.154;8.254;2024-02-15T16:35:38;13.70;99.90
4934;DHT22;2482;49.154;8.254;2024-02-15T16:38:05;13.60;99.90